Time;durP1;ratioP1;P1;durP2;ratioP2;P2;SDS_P1;SDS_P2;PMS_P1;PMS_P2;Temp;Humidity;BMP_temperature;BMP_pressure;BME280_temperature;BME280_humidity;BME280_pressure;Samples;Min_cycle;Max_cycle;Signal;HPM_P1;HPM_P2
2022/08/19 00:02:07;;;;;;;15.02;12.90;;;23.70;80.40;;;;;;6159814;23;20171;-87
2022/08/19 00:04:36;;;;;;;17.70;14.57;;;23.70;80.30;;;;;;6135961;23;20147;-88
2022/08/19 00:07:06;;;;;;;16.95;14.18;;;23.70;80.30;;;;;;6160176;23;20139;-88
2022/08/19 00:09:32;;;;;;;16.58;13.55;;;23.70;80.30;;;;;;6134548;23;20280;-87
2022/08/19 00:12:01;;;;;;;16.20;13.50;;;23.70;80.40;;;;;;6159939;23;20248;-87
2022/08/19 00:14:31;;;;;;;16.00;13.65;;;23.70;80.50;;;;;;6110337;23;20240;-86
2022/08/19 00:16:56;;;;;;;16.42;13.50;;;23.70;80.50;;;;;;6110122;23;20174;-88
2022/08/19 00:19:25;;;;;;;16.48;14.20;;;23.70;80.40;;;;;;6135502;23;20591;-87
2022/08/19 00:21:55;;;;;;;15.27;13.27;;;23.70;80.40;;;;;;6134538;23;20162;-86
2022/08/19 00:24:23;;;;;;;16.00;13.70;;;23.70;80.30;;;;;;6135680;23;20158;-89
2022/08/19 00:26:50;;;;;;;15.60;13.70;;;23.70;80.50;;;;;;6134688;23;20155;-89
2022/08/19 00:29:20;;;;;;;16.17;13.90;;;23.70;80.40;;;;;;6135782;23;20143;-87
2022/08/19 00:31:48;;;;;;;16.58;13.57;;;23.70;80.30;;;;;;6134210;23;20237;-86
2022/08/19 00:34:15;;;;;;;17.38;13.82;;;23.70;80.50;;;;;;6134420;23;20154;-86
2022/08/19 00:36:42;;;;;;;17.73;13.90;;;23.70;80.50;;;;;;6109999;23;20182;-88
2022/08/19 00:39:09;;;;;;;16.75;14.25;;;23.70;80.40;;;;;;6109659;23;20568;-87
2022/08/19 00:41:36;;;;;;;17.90;14.20;;;23.70;80.40;;;;;;6109989;23;20197;-86
2022/08/19 00:44:09;;;;;;;15.90;13.20;;;23.70;80.40;;;;;;6109942;23;20221;-86
2022/08/19 00:46:37;;;;;;;17.13;14.13;;;23.70;80.50;;;;;;6110065;23;20538;-86
2022/08/19 00:49:06;;;;;;;15.88;13.40;;;23.70;80.50;;;;;;6086144;23;20671;-86
2022/08/19 00:51:34;;;;;;;16.65;13.75;;;23.70;80.50;;;;;;6134588;23;20151;-87
2022/08/19 00:54:01;;;;;;;17.25;13.73;;;23.60;80.50;;;;;;6110245;23;20158;-87
2022/08/19 00:56:28;;;;;;;15.30;12.73;;;23.70;80.50;;;;;;6133828;23;20189;-86
2022/08/19 00:58:55;;;;;;;16.67;13.55;;;23.70;80.50;;;;;;6159546;23;20135;-86
2022/08/19 01:01:22;;;;;;;15.68;13.63;;;23.60;80.50;;;;;;6159577;23;20587;-86
2022/08/19 01:03:52;;;;;;;14.82;13.20;;;23.60;80.50;;;;;;6185753;23;20673;-87
2022/08/19 01:06:21;;;;;;;14.63;12.43;;;23.60;80.50;;;;;;6109787;23;20186;-87
2022/08/19 01:08:47;;;;;;;16.35;13.82;;;23.60;80.40;;;;;;6109109;23;20174;-87
2022/08/19 01:11:16;;;;;;;16.88;13.85;;;23.60;80.40;;;;;;6186157;23;20134;-86
2022/08/19 01:13:45;;;;;;;16.63;13.50;;;23.70;80.50;;;;;;6134210;23;20233;-86
2022/08/19 01:16:14;;;;;;;14.77;12.82;;;23.70;80.50;;;;;;6109566;23;20598;-85
2022/08/19 01:18:45;;;;;;;15.32;13.15;;;23.60;80.30;;;;;;6085685;23;20238;-87
2022/08/19 01:21:28;;;;;;;16.55;13.50;;;23.60;80.40;;;;;;6109960;23;20220;-86
2022/08/19 01:23:57;;;;;;;15.10;13.10;;;23.70;80.40;;;;;;6115072;23;20505;-86
2022/08/19 01:26:26;;;;;;;16.38;13.98;;;23.70;80.30;;;;;;6133859;23;20154;-87
2022/08/19 01:28:56;;;;;;;17.70;13.85;;;23.60;80.30;;;;;;6134350;23;20162;-86
2022/08/19 01:31:26;;;;;;;16.48;14.05;;;23.60;80.30;;;;;;6109635;23;20151;-87
2022/08/19 01:33:55;;;;;;;16.45;13.38;;;23.60;80.30;;;;;;6109497;23;20289;-86
2022/08/19 01:36:41;;;;;;;15.88;12.90;;;23.60;80.30;;;;;;6134052;23;20638;-88
2022/08/19 01:39:12;;;;;;;16.38;14.10;;;23.70;80.40;;;;;;6159483;23;20150;-88
2022/08/19 01:41:41;;;;;;;15.57;13.18;;;23.60;80.30;;;;;;6085669;23;20189;-87
2022/08/19 01:44:07;;;;;;;17.60;14.10;;;23.60;80.40;;;;;;6085261;23;20221;-88
2022/08/19 01:46:33;;;;;;;15.60;13.55;;;23.60;80.40;;;;;;6135625;23;20154;-86
2022/08/19 01:48:59;;;;;;;15.63;13.80;;;23.60;80.40;;;;;;6134931;23;20151;-86
2022/08/19 01:51:26;;;;;;;15.57;13.55;;;23.60;80.30;;;;;;6134566;23;20157;-86
2022/08/19 01:53:54;;;;;;;16.52;13.90;;;23.60;80.30;;;;;;6134051;23;20481;-88
2022/08/19 01:56:21;;;;;;;15.80;13.18;;;23.60;80.30;;;;;;6134368;23;20213;-87
2022/08/19 01:58:53;;;;;;;16.67;13.88;;;23.60;80.30;;;;;;6109452;23;20163;-86
2022/08/19 02:01:18;;;;;;;16.75;13.75;;;23.60;80.40;;;;;;6134018;23;20165;-87
2022/08/19 02:03:45;;;;;;;15.82;13.35;;;23.60;80.40;;;;;;6134379;23;20174;-89
2022/08/19 02:06:11;;;;;;;16.40;13.45;;;23.60;80.40;;;;;;6085035;23;20205;-87
2022/08/19 02:08:37;;;;;;;16.38;14.05;;;23.60;80.40;;;;;;6134217;23;20575;-87
2022/08/19 02:11:04;;;;;;;16.10;13.45;;;23.60;80.50;;;;;;6159177;23;20135;-87
2022/08/19 02:13:35;;;;;;;17.38;13.75;;;23.60;80.40;;;;;;6109705;23;20159;-88
2022/08/19 02:16:03;;;;;;;16.17;13.52;;;23.60;80.40;;;;;;6109513;23;20242;-88
2022/08/19 02:18:31;;;;;;;15.93;13.48;;;23.60;80.40;;;;;;6133970;23;20181;-88
2022/08/19 02:20:59;;;;;;;17.63;14.10;;;23.60;80.50;;;;;;6134437;23;20216;-86
2022/08/19 02:23:27;;;;;;;14.82;13.20;;;23.60;80.50;;;;;;6135849;23;20190;-87
2022/08/19 02:25:55;;;;;;;16.00;13.50;;;23.50;80.40;;;;;;6135725;23;20147;-86
2022/08/19 02:28:23;;;;;;;16.40;13.20;;;23.60;80.50;;;;;;6136040;23;20158;-87
2022/08/19 02:30:51;;;;;;;15.93;13.55;;;23.50;80.40;;;;;;6111149;23;20154;-86
2022/08/19 02:33:19;;;;;;;15.95;13.60;;;23.60;80.50;;;;;;6086986;23;20602;-86
2022/08/19 02:35:45;;;;;;;16.38;12.98;;;23.60;80.50;;;;;;6111565;23;20518;-88
2022/08/19 02:40:51;;;;;;;17.00;13.55;;;23.60;80.50;;;;;;6163255;23;20521;-87
2022/08/19 02:43:20;;;;;;;16.17;13.77;;;23.60;80.50;;;;;;6161507;23;20169;-88
2022/08/19 02:45:48;;;;;;;17.48;13.82;;;23.60;80.50;;;;;;6111350;23;20538;-87
2022/08/19 02:48:17;;;;;;;15.93;12.95;;;23.60;80.40;;;;;;6111517;23;20209;-88
2022/08/19 02:50:44;;;;;;;15.32;12.68;;;23.60;80.40;;;;;;6135771;23;20179;-87
2022/08/19 02:53:11;;;;;;;16.30;13.48;;;23.50;80.30;;;;;;6111070;23;20155;-89
2022/08/19 02:55:49;;;;;;;17.23;14.25;;;23.60;80.40;;;;;;6110870;23;20159;-87
2022/08/19 02:58:16;;;;;;;16.70;13.20;;;23.60;80.30;;;;;;6111194;23;20177;-87
2022/08/19 03:00:46;;;;;;;15.20;13.07;;;23.60;80.30;;;;;;6110875;23;20212;-87
2022/08/19 03:03:13;;;;;;;16.38;13.20;;;23.60;80.30;;;;;;6087607;23;20190;-88
2022/08/19 03:05:39;;;;;;;17.70;13.57;;;23.60;80.30;;;;;;6110833;23;20205;-88
2022/08/19 03:08:06;;;;;;;15.50;12.70;;;23.60;80.30;;;;;;6160646;23;20135;-86
2022/08/19 03:10:39;;;;;;;17.92;13.63;;;23.60;80.50;;;;;;6134755;23;20199;-87
2022/08/19 03:13:04;;;;;;;15.38;13.05;;;23.60;80.50;;;;;;6136230;23;20154;-87
2022/08/19 03:15:32;;;;;;;16.45;12.93;;;23.60;80.50;;;;;;6160515;23;20142;-87
2022/08/19 03:17:59;;;;;;;15.23;12.95;;;23.60;80.50;;;;;;6110872;23;20159;-88
2022/08/19 03:20:26;;;;;;;16.30;13.77;;;23.60;80.50;;;;;;6135192;23;20157;-88
2022/08/19 03:22:53;;;;;;;15.93;13.40;;;23.60;80.50;;;;;;6110494;23;20253;-86
2022/08/19 03:25:20;;;;;;;15.63;12.57;;;23.50;80.30;;;;;;6110707;23;20161;-86
2022/08/19 03:27:48;;;;;;;16.42;13.38;;;23.50;80.40;;;;;;6135078;23;20213;-88
2022/08/19 03:30:15;;;;;;;15.05;13.13;;;23.60;80.50;;;;;;6110706;23;20151;-88
2022/08/19 03:32:43;;;;;;;14.77;13.00;;;23.50;80.40;;;;;;6134451;23;20169;-89
2022/08/19 03:35:10;;;;;;;16.27;13.63;;;23.60;80.50;;;;;;6087208;23;20154;-86
2022/08/19 03:37:37;;;;;;;15.30;13.13;;;23.60;80.50;;;;;;6110740;23;20159;-88
2022/08/19 03:40:04;;;;;;;15.40;13.13;;;23.50;80.40;;;;;;6086637;23;20486;-87
2022/08/19 03:42:30;;;;;;;16.17;13.60;;;23.50;80.50;;;;;;6135555;23;20181;-86
2022/08/19 03:44:58;;;;;;;14.93;12.88;;;23.50;80.50;;;;;;6160499;23;20177;-87
2022/08/19 03:47:28;;;;;;;15.48;12.98;;;23.60;80.60;;;;;;6134662;23;20233;-87
2022/08/19 03:49:55;;;;;;;15.25;12.65;;;23.50;80.40;;;;;;6135592;23;20178;-87
2022/08/19 03:52:22;;;;;;;15.20;12.95;;;23.60;80.50;;;;;;6135154;23;20159;-87
2022/08/19 03:54:48;;;;;;;16.42;13.43;;;23.50;80.50;;;;;;6110404;23;20162;-86
2022/08/19 03:57:15;;;;;;;15.18;13.43;;;23.50;80.50;;;;;;6110262;23;20578;-88
2022/08/19 03:59:42;;;;;;;16.15;12.82;;;23.50;80.50;;;;;;6186618;23;20142;-86
2022/08/19 04:02:10;;;;;;;17.20;13.23;;;23.50;80.50;;;;;;6135356;23;20186;-87
2022/08/19 04:04:37;;;;;;;15.60;13.18;;;23.60;80.50;;;;;;6160040;23;20131;-87
2022/08/19 04:07:04;;;;;;;16.50;13.40;;;23.50;80.40;;;;;;6160116;23;20143;-86
2022/08/19 04:09:30;;;;;;;15.40;12.80;;;23.50;80.50;;;;;;6085852;23;20198;-86
2022/08/19 04:11:57;;;;;;;14.88;12.73;;;23.50;80.50;;;;;;6135481;23;20225;-86
2022/08/19 04:14:26;;;;;;;16.08;13.00;;;23.50;80.50;;;;;;6110220;23;20201;-87
2022/08/19 04:16:53;;;;;;;13.98;12.13;;;23.50;80.50;;;;;;6160295;23;20261;-86
2022/08/19 04:19:20;;;;;;;15.02;12.68;;;23.60;80.50;;;;;;6160499;23;20131;-86
2022/08/19 04:21:53;;;;;;;14.77;12.60;;;23.50;80.50;;;;;;6135321;23;20158;-87
2022/08/19 04:24:20;;;;;;;15.18;12.57;;;23.60;80.60;;;;;;6159988;23;20139;-88
2022/08/19 04:26:46;;;;;;;16.00;13.18;;;23.50;80.40;;;;;;6135441;23;20147;-88
2022/08/19 04:29:15;;;;;;;14.82;12.95;;;23.50;80.50;;;;;;6186388;23;20135;-86
2022/08/19 04:31:41;;;;;;;14.65;13.05;;;23.50;80.50;;;;;;6159806;23;20444;-87
2022/08/19 04:34:10;;;;;;;16.15;13.32;;;23.60;80.60;;;;;;6159823;23;20138;-86
2022/08/19 04:36:37;;;;;;;15.93;12.95;;;23.50;80.50;;;;;;6160321;23;20181;-87
2022/08/19 04:39:06;;;;;;;14.48;12.50;;;23.50;80.50;;;;;;6134976;23;20233;-86
2022/08/19 04:44:17;;;;;;;15.32;12.48;;;23.40;80.50;;;;;;6162983;23;20193;-86
2022/08/19 04:46:46;;;;;;;15.93;13.38;;;23.50;80.70;;;;;;6136039;23;20150;-86
2022/08/19 04:49:13;;;;;;;13.85;12.32;;;23.50;80.80;;;;;;6135209;23;20597;-87
2022/08/19 04:51:41;;;;;;;14.98;13.00;;;23.50;80.80;;;;;;6159683;23;20466;-88
2022/08/19 04:54:07;;;;;;;15.25;13.40;;;23.50;80.90;;;;;;6159975;23;20135;-87
2022/08/19 04:56:33;;;;;;;15.63;13.00;;;23.40;80.90;;;;;;6135079;23;20158;-87
2022/08/19 04:59:04;;;;;;;14.68;12.48;;;23.40;80.90;;;;;;6160013;23;20566;-87
2022/08/19 05:01:32;;;;;;;15.80;12.65;;;23.40;81.80;;;;;;6134409;23;20205;-87
2022/08/19 05:04:04;;;;;;;14.02;11.90;;;23.40;81.00;;;;;;6134985;23;20182;-87
2022/08/19 05:06:32;;;;;;;15.25;12.73;;;23.50;81.00;;;;;;6110435;23;20197;-87
2022/08/19 05:08:58;;;;;;;13.95;11.88;;;23.50;81.30;;;;;;6135724;23;20203;-86
2022/08/19 05:11:25;;;;;;;13.75;11.95;;;23.50;81.60;;;;;;6134877;23;20490;-88
2022/08/19 05:13:52;;;;;;;13.32;11.93;;;23.60;82.10;;;;;;6159159;23;20178;-86
2022/08/19 05:16:19;;;;;;;13.73;11.50;;;23.50;82.30;;;;;;6135009;23;20218;-88
2022/08/19 05:24:08;;;;;;;15.02;12.45;;;23.50;83.90;;;;;;6162290;23;20163;-88
2022/08/19 05:26:36;;;;;;;14.48;11.27;;;23.40;84.20;;;;;;6135033;23;20154;-88
2022/08/19 05:29:03;;;;;;;14.20;11.45;;;23.40;84.70;;;;;;6135210;23;20159;-86
2022/08/19 05:31:29;;;;;;;13.98;11.77;;;23.30;85.20;;;;;;6159997;23;20127;-86
2022/08/19 05:33:55;;;;;;;14.00;12.05;;;23.30;85.60;;;;;;6134573;23;20490;-86
2022/08/19 05:36:21;;;;;;;14.55;12.52;;;23.30;85.80;;;;;;6185597;23;20221;-87
2022/08/19 05:38:47;;;;;;;13.45;11.40;;;23.30;85.90;;;;;;6135198;23;20209;-87
2022/08/19 05:41:14;;;;;;;15.20;12.10;;;23.20;86.20;;;;;;6134695;23;20238;-87
2022/08/19 05:43:40;;;;;;;13.80;11.93;;;23.30;86.40;;;;;;6134456;23;20618;-87
2022/08/19 05:46:06;;;;;;;13.48;11.23;;;23.30;86.70;;;;;;6159617;23;20134;-87
2022/08/19 05:48:33;;;;;;;13.13;11.27;;;23.30;87.00;;;;;;6135241;23;20246;-86
2022/08/19 05:51:05;;;;;;;12.85;10.98;;;23.30;87.10;;;;;;6159620;23;20139;-86
2022/08/19 05:53:32;;;;;;;12.93;11.35;;;23.30;87.40;;;;;;6160014;23;20131;-87
2022/08/19 05:55:58;;;;;;;12.35;10.98;;;23.20;87.40;;;;;;6160492;23;20178;-89
2022/08/19 05:58:24;;;;;;;12.98;10.95;;;23.30;87.60;;;;;;6161648;23;20142;-88
2022/08/19 06:00:51;;;;;;;13.48;11.40;;;23.20;87.60;;;;;;6136576;23;20161;-86
2022/08/19 06:03:18;;;;;;;13.30;11.27;;;23.20;87.80;;;;;;6161509;23;20245;-86
2022/08/19 06:05:45;;;;;;;13.13;10.95;;;23.20;88.20;;;;;;6087390;23;20158;-88
2022/08/19 06:08:11;;;;;;;13.10;11.57;;;23.20;88.40;;;;;;6111435;23;20213;-86
2022/08/19 06:10:39;;;;;;;13.35;11.30;;;23.20;88.50;;;;;;6136882;23;20194;-86
2022/08/19 06:13:06;;;;;;;14.30;11.57;;;23.20;88.90;;;;;;6087173;23;20174;-86
2022/08/19 06:15:33;;;;;;;13.75;11.75;;;23.20;88.80;;;;;;6063388;23;20185;-87
2022/08/19 06:18:01;;;;;;;13.75;11.27;;;23.20;89.00;;;;;;6087724;23;20155;-87
2022/08/19 06:20:29;;;;;;;13.93;11.88;;;23.20;89.20;;;;;;6111223;23;20161;-87
2022/08/19 06:22:56;;;;;;;14.38;12.00;;;23.20;89.30;;;;;;6063738;23;20503;-86
2022/08/19 06:25:23;;;;;;;12.93;11.52;;;23.20;89.50;;;;;;6111543;23;20257;-86
2022/08/19 06:27:50;;;;;;;13.20;11.32;;;23.20;89.60;;;;;;6111000;23;20155;-88
2022/08/19 06:30:17;;;;;;;14.20;11.52;;;23.30;89.70;;;;;;6086627;23;20151;-87
2022/08/19 06:32:44;;;;;;;13.52;11.30;;;23.30;89.80;;;;;;6111438;23;20163;-87
2022/08/19 06:35:11;;;;;;;15.05;12.48;;;23.20;89.80;;;;;;6087067;23;20557;-88
2022/08/19 06:37:42;;;;;;;14.45;12.00;;;23.30;90.00;;;;;;6087226;23;20590;-86
2022/08/19 06:40:10;;;;;;;14.18;11.95;;;23.30;90.00;;;;;;6088217;23;20266;-86
2022/08/19 06:42:38;;;;;;;14.80;11.88;;;23.30;89.90;;;;;;6137176;23;20179;-86
2022/08/19 06:45:08;;;;;;;14.25;11.98;;;23.40;89.40;;;;;;6137034;23;20170;-86
2022/08/19 06:47:35;;;;;;;14.20;11.57;;;23.50;88.90;;;;;;6087431;23;20661;-88
2022/08/19 06:50:02;;;;;;;14.27;12.40;;;23.50;88.40;;;;;;6136682;23;20147;-89
2022/08/19 06:52:34;;;;;;;14.60;11.88;;;23.60;87.90;;;;;;6136776;23;20151;-86
2022/08/19 06:55:00;;;;;;;14.90;12.27;;;23.60;87.70;;;;;;6087503;23;20159;-86
2022/08/19 06:57:32;;;;;;;15.80;12.63;;;23.60;87.50;;;;;;6161042;23;20559;-86
2022/08/19 07:00:00;;;;;;;14.90;12.57;;;23.60;87.30;;;;;;6087606;23;20155;-87
2022/08/19 07:02:29;;;;;;;14.07;12.52;;;23.70;87.30;;;;;;6087042;23;20510;-87
2022/08/19 07:04:57;;;;;;;15.48;13.10;;;23.60;87.20;;;;;;6111185;23;20155;-88
2022/08/19 07:07:25;;;;;;;14.38;12.43;;;23.60;87.60;;;;;;6111585;23;20226;-86
2022/08/19 07:09:52;;;;;;;14.63;12.13;;;23.60;87.30;;;;;;6110877;23;20756;-88
2022/08/19 07:12:18;;;;;;;13.82;11.80;;;23.70;86.80;;;;;;6136155;23;20155;-87
2022/08/19 07:14:47;;;;;;;15.68;12.82;;;23.70;87.00;;;;;;6160601;23;20142;-88
2022/08/19 07:17:15;;;;;;;16.55;13.02;;;23.70;87.00;;;;;;6111176;23;20234;-87
2022/08/19 07:19:44;;;;;;;15.95;13.25;;;23.70;86.40;;;;;;6110546;23;20162;-87
2022/08/19 07:22:12;;;;;;;14.55;12.40;;;23.80;86.60;;;;;;6110442;23;20155;-86
2022/08/19 07:24:40;;;;;;;13.50;12.05;;;23.70;86.40;;;;;;6135298;23;20158;-86
2022/08/19 07:27:09;;;;;;;15.20;12.88;;;23.70;86.90;;;;;;6111004;23;20229;-86
2022/08/19 07:29:37;;;;;;;14.90;12.48;;;23.70;86.20;;;;;;6111204;23;20151;-89
2022/08/19 07:32:05;;;;;;;14.38;12.55;;;23.80;86.30;;;;;;6135262;23;20186;-87
2022/08/19 07:34:36;;;;;;;15.95;12.93;;;23.80;86.20;;;;;;6110989;23;20158;-86
2022/08/19 07:37:05;;;;;;;15.35;12.52;;;23.80;85.90;;;;;;6112759;23;20241;-87
2022/08/19 07:39:33;;;;;;;15.80;12.85;;;23.80;86.10;;;;;;6086974;23;21032;-87
2022/08/19 07:42:01;;;;;;;13.88;11.63;;;23.90;86.30;;;;;;6136275;23;20173;-88
2022/08/19 07:44:27;;;;;;;14.07;11.95;;;23.90;86.30;;;;;;6110767;23;20162;-86
2022/08/19 07:46:58;;;;;;;14.55;12.75;;;23.90;86.00;;;;;;6135216;23;20578;-87
2022/08/19 07:49:26;;;;;;;14.82;12.70;;;23.90;85.90;;;;;;6110507;23;20489;-87
2022/08/19 07:52:01;;;;;;;15.60;13.00;;;23.80;86.30;;;;;;6110000;23;20182;-87
2022/08/19 07:54:30;;;;;;;15.05;13.10;;;23.80;86.70;;;;;;6111264;23;20204;-89
2022/08/19 07:56:58;;;;;;;15.23;12.80;;;23.80;87.20;;;;;;6110873;23;20155;-86
2022/08/19 07:59:25;;;;;;;14.25;12.63;;;23.80;87.00;;;;;;6110641;23;20151;-87
2022/08/19 08:01:53;;;;;;;14.90;12.30;;;23.80;86.90;;;;;;6110300;23;20155;-88
2022/08/19 08:09:48;;;;;;;14.05;12.02;;;23.90;86.30;;;;;;6140120;23;20198;-86
2022/08/19 08:12:18;;;;;;;15.50;13.20;;;23.90;86.30;;;;;;6135826;23;20542;-89
2022/08/19 08:14:48;;;;;;;15.65;12.70;;;24.00;86.00;;;;;;6110853;23;20166;-87
2022/08/19 08:17:16;;;;;;;13.85;12.23;;;24.00;85.80;;;;;;6135117;23;20193;-86
2022/08/19 08:19:43;;;;;;;14.60;12.23;;;24.10;86.00;;;;;;6110662;23;20169;-88
2022/08/19 08:23:21;;;;;;;12.77;11.40;;;24.10;85.90;;;;;;6110277;23;20236;-87
2022/08/19 08:25:00;;;;;;;13.18;11.55;;;24.10;85.60;;;;;;6143413;23;20146;-87
2022/08/19 08:27:30;;;;;;;13.75;11.88;;;24.20;85.40;;;;;;6111586;23;20158;-87
2022/08/19 08:30:01;;;;;;;13.82;12.27;;;24.10;85.40;;;;;;6136601;23;20155;-87
2022/08/19 08:32:30;;;;;;;13.98;12.18;;;24.20;85.20;;;;;;6110219;23;20186;-87
2022/08/19 08:34:56;;;;;;;15.38;13.23;;;24.20;85.20;;;;;;6159877;23;20158;-86
2022/08/19 08:37:22;;;;;;;15.00;13.10;;;24.20;85.20;;;;;;6135471;23;20163;-86
2022/08/19 08:39:54;;;;;;;15.07;12.32;;;24.20;85.40;;;;;;6135265;23;20258;-86
2022/08/19 08:42:27;;;;;;;14.75;12.63;;;24.10;85.80;;;;;;6110778;23;20182;-86
2022/08/19 08:44:59;;;;;;;13.18;11.75;;;24.10;86.70;;;;;;6135540;23;20181;-85
2022/08/19 08:47:26;;;;;;;15.32;13.63;;;24.10;86.20;;;;;;6134983;23;20151;-87
2022/08/19 08:49:59;;;;;;;14.73;12.80;;;24.00;86.40;;;;;;6135247;23;20158;-88
2022/08/19 08:52:29;;;;;;;14.32;12.35;;;24.00;86.60;;;;;;6159536;23;20150;-89
2022/08/19 08:54:57;;;;;;;15.27;12.52;;;24.00;86.70;;;;;;6135397;23;20157;-85
2022/08/19 08:57:32;;;;;;;13.45;12.02;;;24.00;86.40;;;;;;6134943;23;20151;-87
2022/08/19 08:59:59;;;;;;;14.13;12.63;;;24.10;86.70;;;;;;6160073;23;20149;-88
2022/08/19 09:02:26;;;;;;;14.05;12.57;;;24.00;86.50;;;;;;6188402;23;20186;-88
2022/08/19 09:04:57;;;;;;;14.02;12.43;;;24.00;86.70;;;;;;6135340;23;20453;-86
2022/08/19 09:07:55;;;;;;;14.07;12.57;;;24.00;86.50;;;;;;6086154;23;20151;-87
2022/08/19 09:10:32;;;;;;;13.95;12.43;;;24.00;86.50;;;;;;6159292;23;20213;-87
2022/08/19 09:13:33;;;;;;;15.00;12.48;;;24.10;86.50;;;;;;6134514;23;20598;-88
2022/08/19 09:16:03;;;;;;;14.07;12.43;;;24.10;86.10;;;;;;6090316;23;20158;-87
2022/08/19 09:18:53;;;;;;;14.95;12.55;;;24.10;86.20;;;;;;6159820;23;20274;-87
2022/08/19 09:21:24;;;;;;;14.05;12.57;;;24.10;85.80;;;;;;6109899;23;20151;-86
2022/08/19 09:23:59;;;;;;;14.98;13.38;;;24.10;86.00;;;;;;6111470;23;20626;-88
2022/08/19 09:26:28;;;;;;;13.43;11.93;;;24.10;86.00;;;;;;6134715;23;20218;-87
2022/08/19 09:29:00;;;;;;;14.55;12.80;;;24.10;85.90;;;;;;6136622;23;20210;-87
2022/08/19 09:31:29;;;;;;;15.13;13.30;;;24.20;85.80;;;;;;6137441;23;20147;-87
2022/08/19 09:34:04;;;;;;;13.95;12.50;;;24.20;85.70;;;;;;6110628;23;20166;-86
2022/08/19 09:36:33;;;;;;;14.52;13.00;;;24.20;85.90;;;;;;6135268;23;20160;-86
2022/08/19 09:39:02;;;;;;;13.93;12.48;;;24.20;85.80;;;;;;6136462;23;20159;-88
2022/08/19 09:41:32;;;;;;;13.95;12.50;;;24.20;85.60;;;;;;6112215;23;20154;-86
2022/08/19 09:44:03;;;;;;;14.35;12.85;;;24.20;85.40;;;;;;6135811;23;20192;-86
2022/08/19 09:46:31;;;;;;;13.57;12.02;;;24.30;85.30;;;;;;6135889;23;20598;-88
2022/08/19 09:49:06;;;;;;;13.27;11.98;;;24.30;85.20;;;;;;6111660;23;20595;-87
2022/08/19 09:51:34;;;;;;;14.50;13.00;;;24.30;85.00;;;;;;6135578;23;20154;-87
2022/08/19 09:54:02;;;;;;;14.88;12.27;;;24.40;85.10;;;;;;6134583;23;20158;-88
2022/08/19 09:56:30;;;;;;;14.13;12.63;;;24.30;84.80;;;;;;6110845;23;20163;-86
2022/08/19 09:59:03;;;;;;;13.63;12.23;;;24.40;84.10;;;;;;6086759;23;20159;-88
2022/08/19 10:01:31;;;;;;;15.45;12.68;;;24.40;83.70;;;;;;6072378;23;20175;-86
2022/08/19 10:04:04;;;;;;;14.38;12.85;;;24.40;83.60;;;;;;6000007;23;20513;-86
2022/08/19 10:06:33;;;;;;;13.45;12.05;;;24.40;83.50;;;;;;6025227;23;20231;-86
2022/08/19 10:08:59;;;;;;;15.45;12.45;;;24.40;83.40;;;;;;5963775;23;20229;-87
2022/08/19 10:11:26;;;;;;;14.75;13.18;;;24.50;83.40;;;;;;5985409;23;20158;-87
2022/08/19 10:13:56;;;;;;;12.65;11.43;;;24.50;83.10;;;;;;6008238;23;20169;-88
2022/08/19 10:16:26;;;;;;;13.57;12.18;;;24.50;83.20;;;;;;6008542;23;20197;-87
2022/08/19 10:18:53;;;;;;;13.23;11.82;;;24.40;83.20;;;;;;5984768;23;20159;-87
2022/08/19 10:21:22;;;;;;;12.77;11.45;;;24.40;83.40;;;;;;5985000;23;20489;-87
2022/08/19 10:23:54;;;;;;;13.40;12.07;;;24.40;83.30;;;;;;5961333;23;20187;-87
2022/08/19 10:26:23;;;;;;;12.55;11.32;;;24.40;83.20;;;;;;5980033;23;20179;-87
2022/08/19 10:28:49;;;;;;;15.02;11.40;;;24.40;83.10;;;;;;6032131;23;20183;-88
2022/08/19 10:31:19;;;;;;;12.90;11.60;;;24.40;83.10;;;;;;6008784;23;20151;-86
2022/08/19 10:33:46;;;;;;;13.57;12.18;;;24.50;82.90;;;;;;6065758;23;20248;-87
2022/08/19 10:36:17;;;;;;;13.05;11.45;;;24.50;82.90;;;;;;6065424;23;20184;-87
2022/08/19 10:38:44;;;;;;;13.10;11.73;;;24.50;82.60;;;;;;6065358;23;20620;-86
2022/08/19 10:41:11;;;;;;;12.88;11.52;;;24.50;82.50;;;;;;6065294;23;20153;-87
2022/08/19 10:43:41;;;;;;;12.05;10.85;;;24.50;82.70;;;;;;6042867;23;20613;-87
2022/08/19 10:46:11;;;;;;;12.85;11.55;;;24.50;82.50;;;;;;6043413;23;20628;-88
2022/08/19 10:48:37;;;;;;;12.30;11.10;;;24.50;82.40;;;;;;6042908;23;20489;-87
2022/08/19 10:53:55;;;;;;;12.48;11.25;;;24.50;81.90;;;;;;6048016;23;20162;-87
2022/08/19 10:59:13;;;;;;;12.80;11.50;;;24.50;81.90;;;;;;5977902;23;20162;-87
2022/08/19 11:01:41;;;;;;;12.98;11.68;;;24.60;81.90;;;;;;6015351;23;20162;-87
2022/08/19 11:04:13;;;;;;;12.73;11.43;;;24.60;81.70;;;;;;5990983;23;20189;-88
2022/08/19 11:06:43;;;;;;;13.00;11.70;;;24.60;81.50;;;;;;5980826;23;20155;-86
2022/08/19 11:09:09;;;;;;;12.45;11.15;;;24.60;81.40;;;;;;5957798;24;20202;-88
2022/08/19 11:11:41;;;;;;;12.95;11.60;;;24.60;81.50;;;;;;5981827;24;20155;-87
2022/08/19 11:14:09;;;;;;;12.13;10.88;;;24.70;81.30;;;;;;5958696;24;20170;-88
2022/08/19 11:16:38;;;;;;;12.35;11.05;;;24.60;81.10;;;;;;5958423;24;20162;-88
2022/08/19 11:19:07;;;;;;;11.98;10.77;;;24.60;80.90;;;;;;5983547;23;20166;-87
2022/08/19 11:21:39;;;;;;;12.30;11.10;;;24.60;80.90;;;;;;5959987;24;20506;-87
2022/08/19 11:24:12;;;;;;;12.05;10.65;;;24.70;80.50;;;;;;5959217;24;20208;-87
2022/08/19 11:26:42;;;;;;;12.85;11.55;;;24.70;80.30;;;;;;5993720;23;20471;-88
2022/08/19 11:29:14;;;;;;;12.98;11.60;;;24.70;80.30;;;;;;6015201;23;20619;-87
2022/08/19 11:31:42;;;;;;;13.00;11.70;;;24.70;80.40;;;;;;6017694;23;20234;-86
2022/08/19 11:34:11;;;;;;;12.98;11.68;;;24.70;81.20;;;;;;6015707;23;20169;-87
2022/08/19 11:36:39;;;;;;;13.05;11.70;;;24.70;80.20;;;;;;6048180;23;20622;-87
2022/08/19 11:39:07;;;;;;;12.57;11.30;;;24.80;80.10;;;;;;6101617;23;20243;-87
2022/08/19 11:41:33;;;;;;;12.82;11.50;;;24.80;80.00;;;;;;6101719;23;20196;-87
2022/08/19 11:44:03;;;;;;;14.35;12.05;;;24.80;79.80;;;;;;6102177;23;20184;-87
2022/08/19 11:46:32;;;;;;;12.50;11.30;;;24.80;79.70;;;;;;6101531;23;20581;-87
2022/08/19 11:49:00;;;;;;;13.90;12.50;;;24.80;79.40;;;;;;6080315;23;20152;-86
2022/08/19 11:51:26;;;;;;;13.45;12.15;;;24.80;79.20;;;;;;6135690;23;20174;-87
2022/08/19 11:53:56;;;;;;;13.13;11.82;;;24.80;79.20;;;;;;6160117;23;20226;-87
2022/08/19 11:56:22;;;;;;;12.85;11.52;;;24.80;79.20;;;;;;6160011;23;20186;-86
2022/08/19 11:58:48;;;;;;;13.38;12.07;;;24.80;79.20;;;;;;6160128;23;20174;-86
2022/08/19 12:01:17;;;;;;;12.57;11.27;;;24.80;79.10;;;;;;6135125;23;20154;-87
2022/08/19 12:03:48;;;;;;;12.63;11.32;;;24.90;78.90;;;;;;6134191;23;20550;-88
2022/08/19 12:06:25;;;;;;;13.68;12.27;;;24.80;78.70;;;;;;6134306;23;20158;-86
2022/08/19 12:08:51;;;;;;;12.30;11.10;;;24.90;78.50;;;;;;6139319;23;20154;-87
2022/08/19 12:11:18;;;;;;;13.50;12.10;;;24.80;78.50;;;;;;6072052;23;20171;-87
2022/08/19 12:13:45;;;;;;;12.65;11.35;;;24.90;78.60;;;;;;6047274;23;20156;-87
2022/08/19 12:16:15;;;;;;;12.52;11.30;;;24.80;78.50;;;;;;6024282;23;20239;-86
2022/08/19 12:18:45;;;;;;;12.68;11.48;;;24.80;78.60;;;;;;6037795;23;20586;-86
2022/08/19 12:21:13;;;;;;;13.80;12.40;;;24.90;78.50;;;;;;6039450;23;20157;-86
2022/08/19 12:23:45;;;;;;;11.38;10.27;;;24.90;78.10;;;;;;6016199;23;20237;-87
2022/08/19 12:26:15;;;;;;;13.30;11.98;;;25.00;76.60;;;;;;6015579;23;20238;-88
2022/08/19 12:28:44;;;;;;;11.48;10.38;;;25.00;76.20;;;;;;6015417;23;20154;-87
2022/08/19 12:31:11;;;;;;;12.82;11.52;;;25.10;75.30;;;;;;6039424;23;20158;-88
2022/08/19 12:33:38;;;;;;;12.85;11.13;;;25.10;76.20;;;;;;6014767;23;20158;-88
2022/08/19 12:36:05;;;;;;;12.52;11.13;;;25.10;76.80;;;;;;6039242;23;20161;-87
2022/08/19 12:38:35;;;;;;;12.70;11.45;;;25.10;76.50;;;;;;6015197;23;20193;-86
2022/08/19 12:41:06;;;;;;;12.10;11.00;;;25.10;76.40;;;;;;5992468;23;20554;-88
2022/08/19 12:43:32;;;;;;;12.38;11.18;;;25.20;76.30;;;;;;6125195;23;20180;-87
2022/08/19 12:45:58;;;;;;;12.45;11.25;;;25.20;75.90;;;;;;6100140;23;20140;-86
2022/08/19 12:48:24;;;;;;;12.85;11.57;;;25.20;75.70;;;;;;6100700;23;20611;-87
2022/08/19 12:50:50;;;;;;;11.75;10.65;;;25.20;75.60;;;;;;6136737;23;20154;-86
2022/08/19 12:53:19;;;;;;;12.70;11.40;;;25.20;75.60;;;;;;6161345;23;20162;-88
2022/08/19 12:55:45;;;;;;;11.43;10.40;;;25.20;75.80;;;;;;6101526;23;20596;-86
2022/08/19 12:58:12;;;;;;;12.30;11.10;;;25.20;76.80;;;;;;6101800;23;20231;-87